Aérodrome :
LOGIN :

S'inscrire | Disclaimer

   EN    FR    IT 

 










Légende :    VFR   VFR Marginal   IFR   IFR Intensif   IFR Très Intensif
Visi : 
Plafond : 
>= 8 km
>= 3000ft
5 à 8 km
1000 à 3000 ft
1500m à 5 km
500 à 1000 ft
800 à 1500m
200 à 500 ft
< 800m
< 200 ft
Symboles :   Orages  Brouillard  Fortes neiges  Fortes précipitations  Vent > 20 kt
SIGMETs :   Divers  Orages  Givrage  Turbulence  Onde Orograph.  Cendres Volcan.







- Altitude de l'aérodrome : 39 ft
- Code IATA : ANR


EBAW - Anvers / Antwerpen Deurne

DERNIER METAR :
  • 172050Z 22003KT 9999 FEW039 06/03 Q1026 NOSIG

METARs EXPIRÉS :
  • 172020Z 27002KT 9999 SCT037 06/03 Q1027 NOSIG
  • 171950Z 29003KT 9999 SCT034 04/02 Q1027 NOSIG
  • 171920Z 24002KT 9999 SCT032 03/02 Q1026 NOSIG
  • 171850Z 19002KT 9999 FEW044 03/01 Q1027 NOSIG
  • 171820Z VRB01KT 9999 FEW044 05/02 Q1027 NOSIG

TAF TAF EBAW
Valide du 17 à 21h jusqu'au 18 à 06h UTC


172006Z 1721/1806 25004KT 9999 FEW035
Pas de NOTAMs connus pour ce terrain.



MET'MAP, la Météo Aéronautique d'un coup d'oeil ! - Copyright ORBIFLY Décembre 2007 - Disclaimer

ORBIFLY MET'MAP TEAM :

Programmation & Développement : Alexandra Zaïnal
Conception & Développement : Baudouin d'Aumeries
Co-Programmation & Développement : Marc-Olivier Méhu
Soutien technique & logistique : Manuel Goepfert

Contact : metmap@orbifly.com




SOURCES & CREDITS :

   NOAA